Rio Pardo, Brazil
Current Conditions -  °F | °C
As of 2:00 AM on Sunday 25 Jan 2015 (Local Time) from SBPA Reporting Station
Thunderstorm Thunderstorm  
Wind Chill: 75°   Ceiling: 9000
Heat Index: 75°   Visibility: 6mi
Dew Point: 70°   Wind: 6mph
Humidity: 83%   Direction: 310°NW
Pressure: NA   Gusts: NA
Location:  29.99°S, 52.38°W
Report Text: SBPA 250400Z 31005KT 9999 VCTS FEW040 FEW045CB BKN090 24/21 Q1011
Loading
Personal Weather Stations






























Interactive Weather Map New forecast layout! Learn more

10-Day Weather Forecast

Advertisements
Track Severe Weather on mobile